createdAt,value
2023-05-02T00:00:20.806Z,462.00
2023-05-02T00:01:15.831Z,461.00
2023-05-02T00:02:10.906Z,454.00
2023-05-02T00:03:07.657Z,456.00
2023-05-02T00:04:02.694Z,459.00
2023-05-02T00:04:57.933Z,455.00
2023-05-02T00:05:52.972Z,454.00
2023-05-02T00:06:48.490Z,453.00
2023-05-02T00:07:43.670Z,462.00
2023-05-02T00:08:38.838Z,480.00
2023-05-02T00:09:34.011Z,464.00
2023-05-02T00:10:29.361Z,463.00
2023-05-02T00:11:24.283Z,465.00
2023-05-02T00:12:19.409Z,463.00
2023-05-02T00:13:14.624Z,462.00
2023-05-02T00:14:09.750Z,465.00
2023-05-02T00:15:05.111Z,463.00
2023-05-02T00:16:00.020Z,459.00
2023-05-02T00:16:55.117Z,462.00
2023-05-02T00:17:50.041Z,462.00
2023-05-02T00:18:47.955Z,456.00
2023-05-02T00:19:43.108Z,451.00
2023-05-02T00:20:38.266Z,458.00
2023-05-02T00:21:33.437Z,457.00
2023-05-02T00:22:28.657Z,459.00
2023-05-02T00:23:24.500Z,454.00
2023-05-02T00:24:19.682Z,452.00
2023-05-02T00:25:15.002Z,452.00
2023-05-02T00:26:10.647Z,456.00
2023-05-02T00:27:05.814Z,444.00
2023-05-02T00:28:01.842Z,436.00
2023-05-02T00:28:56.885Z,444.00
2023-05-02T00:29:52.241Z,442.00
2023-05-02T00:30:48.037Z,439.00
2023-05-02T00:31:43.308Z,436.00
2023-05-02T00:32:38.582Z,439.00
2023-05-02T00:33:34.855Z,438.00
2023-05-02T00:34:30.068Z,438.00
2023-05-02T00:35:25.844Z,437.00
2023-05-02T00:36:20.993Z,433.00
2023-05-02T00:37:16.339Z,442.00
2023-05-02T00:38:11.950Z,441.00
2023-05-02T00:39:07.232Z,445.00
2023-05-02T00:40:03.090Z,436.00
2023-05-02T00:40:58.181Z,436.00
2023-05-02T00:41:53.482Z,436.00
2023-05-02T00:42:49.278Z,438.00
2023-05-02T00:43:44.444Z,445.00
2023-05-02T00:44:39.824Z,460.00
2023-05-02T00:45:35.792Z,456.00
2023-05-02T00:46:31.054Z,453.00
2023-05-02T00:47:26.905Z,455.00
2023-05-02T00:48:22.072Z,455.00
2023-05-02T00:49:17.154Z,454.00
2023-05-02T00:50:13.222Z,456.00
2023-05-02T00:51:08.140Z,452.00
2023-05-02T00:52:04.032Z,453.00
2023-05-02T00:52:59.181Z,458.00
2023-05-02T00:53:54.398Z,460.00
2023-05-02T00:54:50.139Z,458.00
2023-05-02T00:55:45.377Z,457.00
2023-05-02T00:56:40.512Z,457.00
2023-05-02T00:57:36.832Z,461.00
2023-05-02T00:58:31.982Z,482.00
2023-05-02T00:59:27.893Z,483.00
2023-05-02T01:00:22.928Z,464.00
2023-05-02T01:01:18.153Z,459.00
2023-05-02T01:02:13.917Z,465.00
2023-05-02T01:03:09.119Z,460.00
2023-05-02T01:04:05.139Z,464.00
2023-05-02T01:05:00.238Z,465.00
2023-05-02T01:05:55.280Z,464.00
2023-05-02T01:06:51.385Z,463.00
2023-05-02T01:07:46.459Z,472.00
2023-05-02T01:08:41.824Z,479.00
2023-05-02T01:09:38.007Z,457.00
2023-05-02T01:10:33.100Z,467.00
2023-05-02T01:11:28.835Z,460.00
2023-05-02T01:12:23.998Z,466.00
2023-05-02T01:13:19.284Z,463.00
2023-05-02T01:14:15.245Z,458.00
2023-05-02T01:15:10.296Z,464.00
2023-05-02T01:16:06.278Z,450.00
2023-05-02T01:17:01.282Z,457.00
2023-05-02T01:17:56.827Z,458.00
2023-05-02T01:18:52.313Z,449.00
2023-05-02T01:19:47.549Z,453.00
2023-05-02T01:20:42.580Z,459.00
2023-05-02T01:21:39.027Z,454.00
2023-05-02T01:22:34.226Z,452.00
2023-05-02T01:23:29.402Z,453.00
2023-05-02T01:24:24.435Z,450.00
2023-05-02T01:25:19.694Z,445.00
2023-05-02T01:26:14.666Z,443.00
2023-05-02T01:27:09.764Z,443.00
2023-05-02T01:28:04.872Z,444.00
2023-05-02T01:28:59.961Z,440.00
2023-05-02T01:29:55.015Z,441.00
2023-05-02T01:30:50.074Z,446.00
2023-05-02T01:31:45.310Z,444.00
2023-05-02T01:32:40.513Z,440.00
2023-05-02T01:33:35.748Z,436.00
2023-05-02T01:34:31.022Z,445.00
2023-05-02T01:35:25.919Z,443.00
2023-05-02T01:36:21.050Z,441.00
2023-05-02T01:37:18.278Z,447.00
2023-05-02T01:38:13.302Z,445.00
2023-05-02T01:39:08.347Z,456.00
2023-05-02T01:40:03.563Z,461.00
2023-05-02T01:40:58.472Z,448.00
2023-05-02T01:41:53.553Z,439.00
2023-05-02T01:42:48.594Z,445.00
2023-05-02T01:43:43.643Z,450.00
2023-05-02T01:44:38.719Z,455.00
2023-05-02T01:45:33.757Z,457.00
2023-05-02T01:46:28.806Z,457.00
2023-05-02T01:47:23.892Z,469.00
2023-05-02T01:48:18.894Z,478.00
2023-05-02T01:49:14.096Z,461.00
2023-05-02T01:50:09.141Z,447.00
2023-05-02T01:51:04.173Z,451.00
2023-05-02T01:51:59.241Z,459.00
2023-05-02T01:52:54.325Z,466.00
2023-05-02T01:53:49.575Z,471.00
2023-05-02T01:54:50.174Z,475.00
2023-05-02T01:55:45.204Z,460.00
2023-05-02T01:56:40.504Z,448.00
2023-05-02T01:57:36.405Z,451.00
2023-05-02T01:58:31.613Z,466.00
2023-05-02T01:59:26.945Z,475.00
2023-05-02T02:00:22.955Z,471.00
2023-05-02T02:01:18.211Z,471.00
2023-05-02T02:02:13.956Z,472.00
2023-05-02T02:03:09.146Z,469.00
2023-05-02T02:04:04.478Z,461.00
2023-05-02T02:05:00.124Z,454.00
2023-05-02T02:05:55.280Z,456.00
2023-05-02T02:06:51.288Z,459.00
2023-05-02T02:07:46.391Z,461.00
2023-05-02T02:08:41.738Z,462.00
2023-05-02T02:09:37.390Z,457.00
2023-05-02T02:10:32.585Z,466.00
2023-05-02T02:11:27.758Z,463.00
2023-05-02T02:12:24.177Z,475.00
2023-05-02T02:13:19.372Z,478.00
2023-05-02T02:14:15.437Z,478.00
2023-05-02T02:15:10.495Z,479.00
2023-05-02T02:16:05.839Z,484.00
2023-05-02T02:17:01.673Z,480.00
2023-05-02T02:17:56.819Z,487.00
2023-05-02T02:18:52.528Z,482.00
2023-05-02T02:19:47.870Z,481.00
2023-05-02T02:20:42.918Z,478.00
2023-05-02T02:21:38.805Z,500.00
2023-05-02T02:22:33.991Z,493.00
2023-05-02T02:23:29.297Z,491.00
2023-05-02T02:24:25.609Z,486.00
2023-05-02T02:25:20.796Z,492.00
2023-05-02T02:26:16.518Z,488.00
2023-05-02T02:27:11.708Z,478.00
2023-05-02T02:28:06.901Z,489.00
2023-05-02T02:29:02.821Z,476.00
2023-05-02T02:29:58.218Z,466.00
2023-05-02T02:30:53.948Z,467.00
2023-05-02T02:31:48.963Z,468.00
2023-05-02T02:32:44.383Z,466.00
2023-05-02T02:33:40.121Z,472.00
2023-05-02T02:34:35.334Z,472.00
2023-05-02T02:35:30.622Z,468.00
2023-05-02T02:36:26.918Z,469.00
2023-05-02T02:37:22.103Z,469.00
2023-05-02T02:38:18.030Z,466.00
2023-05-02T02:39:13.165Z,468.00
2023-05-02T02:40:08.514Z,461.00
2023-05-02T02:41:04.120Z,467.00
2023-05-02T02:41:59.340Z,464.00
2023-05-02T02:42:55.077Z,466.00
2023-05-02T02:43:50.409Z,474.00
2023-05-02T02:44:45.580Z,463.00
2023-05-02T02:45:41.341Z,476.00
2023-05-02T02:46:36.549Z,477.00
2023-05-02T02:47:31.776Z,475.00
2023-05-02T02:48:27.862Z,471.00
2023-05-02T02:49:23.156Z,471.00
2023-05-02T02:50:18.870Z,468.00
2023-05-02T02:51:14.028Z,467.00
2023-05-02T02:52:09.213Z,472.00
2023-05-02T02:53:04.389Z,471.00
2023-05-02T02:53:59.861Z,471.00
2023-05-02T02:54:55.501Z,472.00
2023-05-02T02:55:50.569Z,466.00
2023-05-02T02:56:45.733Z,472.00
2023-05-02T02:57:41.878Z,475.00
2023-05-02T02:58:37.095Z,479.00
2023-05-02T02:59:32.842Z,467.00
2023-05-02T03:00:28.014Z,472.00
2023-05-02T03:01:23.087Z,468.00
2023-05-02T03:02:18.956Z,471.00
2023-05-02T03:03:14.314Z,467.00
2023-05-02T03:04:09.963Z,476.00
2023-05-02T03:05:05.127Z,468.00
2023-05-02T03:06:00.407Z,474.00
2023-05-02T03:06:56.199Z,474.00
2023-05-02T03:07:51.367Z,471.00
2023-05-02T03:08:46.560Z,469.00
2023-05-02T03:09:41.650Z,464.00
2023-05-02T03:10:36.819Z,462.00
2023-05-02T03:11:31.883Z,470.00
2023-05-02T03:12:26.851Z,471.00
2023-05-02T03:13:25.590Z,473.00
2023-05-02T03:14:20.691Z,475.00
2023-05-02T03:15:16.333Z,470.00
2023-05-02T03:16:11.369Z,476.00
2023-05-02T03:17:06.437Z,468.00
2023-05-02T03:18:01.536Z,471.00
2023-05-02T03:18:56.602Z,470.00
2023-05-02T03:19:51.646Z,472.00
2023-05-02T03:20:46.897Z,474.00
2023-05-02T03:21:41.820Z,474.00
2023-05-02T03:22:36.869Z,479.00
2023-05-02T03:23:31.880Z,478.00
2023-05-02T03:24:27.119Z,478.00
2023-05-02T03:25:22.163Z,479.00
2023-05-02T03:26:17.244Z,472.00
2023-05-02T03:27:12.311Z,484.00
2023-05-02T03:28:07.334Z,471.00
2023-05-02T03:29:02.364Z,470.00
2023-05-02T03:29:57.534Z,469.00
2023-05-02T03:30:52.681Z,463.00
2023-05-02T03:31:48.047Z,468.00
2023-05-02T03:32:43.093Z,486.00
2023-05-02T03:33:38.271Z,478.00
2023-05-02T03:34:33.342Z,469.00
2023-05-02T03:35:28.683Z,469.00
2023-05-02T03:36:23.698Z,463.00
2023-05-02T03:37:18.901Z,463.00
2023-05-02T03:38:14.031Z,473.00
2023-05-02T03:39:09.212Z,470.00
2023-05-02T03:40:04.419Z,473.00
2023-05-02T03:40:59.542Z,466.00
2023-05-02T03:41:54.495Z,466.00
2023-05-02T03:42:49.603Z,475.00
2023-05-02T03:43:44.551Z,475.00
2023-05-02T03:44:39.711Z,472.00
2023-05-02T03:45:34.642Z,472.00
2023-05-02T03:46:29.772Z,476.00
2023-05-02T03:47:24.787Z,476.00
2023-05-02T03:48:19.809Z,478.00
2023-05-02T03:49:14.797Z,480.00
2023-05-02T03:50:09.900Z,471.00
2023-05-02T03:51:04.940Z,472.00
2023-05-02T03:51:59.958Z,474.00
2023-05-02T03:52:55.051Z,482.00
2023-05-02T03:53:50.125Z,479.00
2023-05-02T03:54:45.173Z,481.00
2023-05-02T03:55:40.492Z,475.00
2023-05-02T03:56:35.475Z,482.00
2023-05-02T03:57:30.510Z,475.00
2023-05-02T03:58:25.521Z,475.00
2023-05-02T03:59:20.584Z,482.00
2023-05-02T04:00:15.626Z,474.00
2023-05-02T04:01:10.796Z,477.00
2023-05-02T04:02:06.010Z,477.00
2023-05-02T04:03:01.774Z,473.00
2023-05-02T04:03:57.041Z,480.00
2023-05-02T04:04:52.730Z,467.00
2023-05-02T04:05:48.091Z,474.00
2023-05-02T04:06:43.403Z,469.00
2023-05-02T04:07:39.017Z,473.00
2023-05-02T04:08:34.379Z,474.00
2023-05-02T04:09:29.715Z,472.00
2023-05-02T04:10:25.924Z,469.00
2023-05-02T04:11:21.419Z,469.00
2023-05-02T04:12:17.060Z,477.00
2023-05-02T04:13:12.267Z,474.00
2023-05-02T04:14:07.553Z,470.00
2023-05-02T04:15:03.334Z,469.00
2023-05-02T04:15:58.696Z,478.00
2023-05-02T04:16:54.808Z,479.00
2023-05-02T04:17:49.758Z,479.00
2023-05-02T04:18:45.094Z,476.00
2023-05-02T04:19:40.923Z,473.00
2023-05-02T04:20:36.243Z,474.00
2023-05-02T04:21:31.769Z,477.00
2023-05-02T04:22:27.788Z,472.00
2023-05-02T04:23:23.171Z,486.00
2023-05-02T04:24:18.935Z,471.00
2023-05-02T04:25:14.278Z,474.00
2023-05-02T04:26:09.911Z,475.00
2023-05-02T04:27:05.489Z,479.00
2023-05-02T04:28:00.652Z,476.00
2023-05-02T04:28:56.579Z,490.00
2023-05-02T04:29:51.951Z,473.00
2023-05-02T04:30:47.532Z,476.00
2023-05-02T04:31:43.196Z,478.00
2023-05-02T04:32:38.531Z,473.00
2023-05-02T04:33:33.735Z,464.00
2023-05-02T04:34:30.112Z,473.00
2023-05-02T04:35:25.529Z,470.00
2023-05-02T04:36:21.515Z,476.00
2023-05-02T04:37:16.606Z,473.00
2023-05-02T04:38:11.915Z,474.00
2023-05-02T04:39:07.574Z,471.00
2023-05-02T04:40:02.975Z,466.00
2023-05-02T04:40:58.583Z,472.00
2023-05-02T04:41:53.963Z,472.00
2023-05-02T04:42:49.243Z,481.00
2023-05-02T04:43:45.064Z,480.00
2023-05-02T04:44:40.473Z,493.00
2023-05-02T04:45:35.725Z,481.00
2023-05-02T04:46:32.124Z,478.00
2023-05-02T04:47:27.412Z,476.00
2023-05-02T04:48:22.714Z,474.00
2023-05-02T04:49:17.809Z,478.00
2023-05-02T04:50:12.843Z,474.00
2023-05-02T04:51:08.062Z,471.00
2023-05-02T04:52:03.123Z,478.00
2023-05-02T04:52:58.231Z,487.00
2023-05-02T04:53:53.296Z,483.00
2023-05-02T04:54:48.360Z,479.00
2023-05-02T04:55:43.385Z,474.00
2023-05-02T04:56:38.636Z,470.00
2023-05-02T04:57:33.568Z,476.00
2023-05-02T04:58:28.507Z,476.00
2023-05-02T04:59:23.587Z,475.00
2023-05-02T05:00:18.683Z,489.00
2023-05-02T05:01:13.912Z,478.00
2023-05-02T05:02:13.076Z,473.00
2023-05-02T05:03:07.976Z,467.00
2023-05-02T05:04:03.187Z,468.00
2023-05-02T05:04:58.150Z,473.00
2023-05-02T05:05:53.341Z,468.00
2023-05-02T05:06:48.434Z,469.00
2023-05-02T05:07:43.329Z,471.00
2023-05-02T05:08:38.402Z,471.00
2023-05-02T05:09:33.500Z,468.00
2023-05-02T05:10:28.516Z,471.00
2023-05-02T05:11:23.945Z,479.00
2023-05-02T05:12:19.102Z,476.00
2023-05-02T05:13:14.603Z,474.00
2023-05-02T05:14:09.966Z,477.00
2023-05-02T05:15:05.006Z,473.00
2023-05-02T05:16:00.307Z,478.00
2023-05-02T05:16:55.260Z,478.00
2023-05-02T05:17:50.350Z,481.00
2023-05-02T05:18:45.329Z,475.00
2023-05-02T05:19:44.519Z,476.00
2023-05-02T05:20:39.608Z,469.00
2023-05-02T05:21:34.801Z,469.00
2023-05-02T05:22:29.773Z,473.00
2023-05-02T05:23:24.797Z,475.00
2023-05-02T05:24:19.903Z,468.00
2023-05-02T05:25:14.945Z,485.00
2023-05-02T05:26:10.183Z,491.00
2023-05-02T05:27:05.088Z,481.00
2023-05-02T05:28:00.172Z,481.00
2023-05-02T05:28:55.243Z,490.00
2023-05-02T05:29:50.366Z,474.00
2023-05-02T05:30:45.393Z,475.00
2023-05-02T05:31:40.722Z,483.00
2023-05-02T05:32:39.048Z,489.00
2023-05-02T05:33:34.232Z,485.00
2023-05-02T05:34:29.186Z,476.00
2023-05-02T05:35:24.398Z,474.00
2023-05-02T05:36:20.416Z,490.00
2023-05-02T05:37:14.718Z,476.00
2023-05-02T05:38:09.602Z,469.00
2023-05-02T05:39:04.664Z,467.00
2023-05-02T05:39:59.967Z,465.00
2023-05-02T05:40:54.826Z,466.00
2023-05-02T05:41:50.218Z,467.00
2023-05-02T05:42:45.169Z,489.00
2023-05-02T05:43:40.215Z,479.00
2023-05-02T05:44:35.302Z,480.00
2023-05-02T05:45:30.332Z,468.00
2023-05-02T05:46:25.785Z,472.00
2023-05-02T05:47:20.750Z,482.00
2023-05-02T05:48:16.129Z,475.00
2023-05-02T05:49:11.482Z,470.00
2023-05-02T05:50:07.056Z,471.00
2023-05-02T05:51:02.387Z,468.00
2023-05-02T05:51:58.056Z,471.00
2023-05-02T05:52:53.412Z,466.00
2023-05-02T05:53:48.728Z,464.00
2023-05-02T05:54:44.085Z,461.00
2023-05-02T05:55:41.557Z,469.00
2023-05-02T05:56:35.134Z,471.00
2023-05-02T05:57:30.353Z,462.00
2023-05-02T05:58:25.845Z,476.00
2023-05-02T05:59:20.865Z,473.00
2023-05-02T06:00:15.966Z,474.00
2023-05-02T06:01:11.194Z,467.00
2023-05-02T06:02:06.167Z,465.00
2023-05-02T06:03:01.360Z,471.00
2023-05-02T06:03:56.240Z,474.00
2023-05-02T06:04:51.358Z,466.00
2023-05-02T06:05:46.459Z,471.00
2023-05-02T06:06:41.433Z,472.00
2023-05-02T06:07:36.440Z,474.00
2023-05-02T06:08:31.511Z,471.00
2023-05-02T06:09:26.584Z,467.00
2023-05-02T06:10:21.626Z,478.00
2023-05-02T06:11:16.725Z,479.00
2023-05-02T06:12:11.667Z,481.00
2023-05-02T06:13:06.706Z,479.00
2023-05-02T06:14:01.797Z,483.00
2023-05-02T06:14:56.884Z,496.00
2023-05-02T06:15:51.971Z,473.00
2023-05-02T06:16:47.475Z,468.00
2023-05-02T06:17:42.415Z,471.00
2023-05-02T06:18:37.511Z,470.00
2023-05-02T06:19:32.550Z,469.00
2023-05-02T06:20:27.628Z,477.00
2023-05-02T06:21:22.822Z,479.00
2023-05-02T06:22:17.737Z,493.00
2023-05-02T06:23:12.807Z,487.00
2023-05-02T06:24:07.924Z,479.00
2023-05-02T06:25:02.938Z,487.00
2023-05-02T06:25:58.043Z,489.00
2023-05-02T06:26:53.141Z,491.00
2023-05-02T06:27:48.250Z,477.00
2023-05-02T06:28:43.291Z,479.00
2023-05-02T06:29:38.350Z,497.00
2023-05-02T06:30:33.396Z,501.00
2023-05-02T06:31:28.688Z,487.00
2023-05-02T06:32:23.702Z,481.00
2023-05-02T06:33:19.077Z,475.00
2023-05-02T06:34:14.382Z,466.00
2023-05-02T06:35:09.457Z,466.00
2023-05-02T06:36:04.532Z,454.00
2023-05-02T06:36:59.890Z,466.00
2023-05-02T06:37:58.079Z,454.00
2023-05-02T06:38:53.230Z,455.00
2023-05-02T06:39:48.224Z,435.00
2023-05-02T06:40:43.273Z,439.00
2023-05-02T06:41:38.459Z,430.00
2023-05-02T06:42:33.350Z,436.00
2023-05-02T06:43:28.419Z,435.00
2023-05-02T06:44:23.464Z,437.00
2023-05-02T06:45:18.615Z,434.00
2023-05-02T06:46:13.905Z,439.00
2023-05-02T06:47:08.707Z,440.00
2023-05-02T06:48:03.760Z,439.00
2023-05-02T06:48:58.751Z,439.00
2023-05-02T06:49:54.516Z,436.00
2023-05-02T06:50:49.850Z,442.00
2023-05-02T06:51:45.312Z,434.00
2023-05-02T06:52:40.563Z,439.00
2023-05-02T06:53:36.104Z,446.00
2023-05-02T06:54:31.580Z,448.00
2023-05-02T06:55:27.018Z,450.00
2023-05-02T06:56:22.593Z,452.00
2023-05-02T06:57:17.916Z,453.00
2023-05-02T06:58:13.362Z,452.00
2023-05-02T06:59:09.058Z,445.00
2023-05-02T07:00:04.459Z,455.00
2023-05-02T07:01:03.820Z,448.00
2023-05-02T07:01:59.121Z,448.00
2023-05-02T07:02:54.546Z,446.00
2023-05-02T07:03:49.928Z,447.00
2023-05-02T07:04:45.494Z,468.00
2023-05-02T07:05:40.875Z,456.00
2023-05-02T07:06:36.332Z,460.00
2023-05-02T07:07:31.902Z,450.00
2023-05-02T07:08:27.145Z,449.00
2023-05-02T07:09:22.579Z,451.00
2023-05-02T07:10:18.038Z,450.00
2023-05-02T07:11:13.399Z,459.00
2023-05-02T07:12:08.974Z,450.00
2023-05-02T07:13:04.147Z,452.00
2023-05-02T07:13:59.810Z,453.00
2023-05-02T07:14:54.897Z,451.00
2023-05-02T07:15:50.005Z,452.00
2023-05-02T07:16:45.111Z,587.00
2023-05-02T07:17:40.278Z,487.00
2023-05-02T07:18:35.189Z,456.00
2023-05-02T07:19:30.271Z,453.00
2023-05-02T07:20:25.362Z,460.00
2023-05-02T07:21:20.455Z,459.00
2023-05-02T07:22:15.685Z,454.00
2023-05-02T07:23:10.523Z,456.00
2023-05-02T07:24:07.790Z,452.00
2023-05-02T07:25:03.042Z,451.00
2023-05-02T07:25:58.021Z,458.00
2023-05-02T07:26:53.315Z,455.00
2023-05-02T07:27:48.149Z,460.00
2023-05-02T07:28:43.319Z,453.00
2023-05-02T07:29:38.376Z,456.00
2023-05-02T07:30:33.487Z,454.00
2023-05-02T07:31:28.567Z,456.00
2023-05-02T07:32:23.885Z,459.00
2023-05-02T07:33:19.569Z,450.00
2023-05-02T07:34:15.037Z,453.00
2023-05-02T07:35:10.756Z,448.00
2023-05-02T07:36:06.246Z,455.00
2023-05-02T07:37:01.778Z,454.00
2023-05-02T07:37:57.362Z,447.00
2023-05-02T07:38:52.677Z,449.00
2023-05-02T07:39:48.444Z,449.00
2023-05-02T07:40:43.748Z,451.00
2023-05-02T07:41:39.461Z,455.00
2023-05-02T07:42:34.775Z,486.00
2023-05-02T07:43:30.149Z,457.00
2023-05-02T07:44:25.470Z,455.00
2023-05-02T07:45:21.775Z,456.00
2023-05-02T07:46:17.290Z,461.00
2023-05-02T07:47:13.189Z,455.00
2023-05-02T07:48:08.445Z,453.00
2023-05-02T07:49:03.889Z,452.00
2023-05-02T07:51:25.186Z,465.00
2023-05-02T07:52:18.912Z,464.00
2023-05-02T07:53:14.985Z,468.00
2023-05-02T07:54:09.723Z,468.00
2023-05-02T07:55:05.267Z,479.00
2023-05-02T07:56:00.757Z,465.00
2023-05-02T07:56:56.478Z,452.00
2023-05-02T07:57:51.672Z,455.00
2023-05-02T07:58:47.213Z,455.00
2023-05-02T07:59:42.579Z,452.00
2023-05-02T08:00:38.203Z,450.00
2023-05-02T08:01:33.620Z,454.00
2023-05-02T08:02:29.086Z,461.00
2023-05-02T08:03:24.743Z,454.00
2023-05-02T08:04:20.210Z,458.00
2023-05-02T08:05:15.610Z,459.00
2023-05-02T08:06:11.157Z,456.00
2023-05-02T08:07:06.676Z,451.00
2023-05-02T08:08:01.971Z,453.00
2023-05-02T08:08:57.359Z,456.00
2023-05-02T08:09:52.876Z,452.00
2023-05-02T08:10:48.399Z,452.00
2023-05-02T08:11:44.078Z,445.00
2023-05-02T08:12:39.323Z,455.00
2023-05-02T08:13:34.741Z,449.00
2023-05-02T08:14:30.113Z,453.00
2023-05-02T08:15:25.642Z,450.00
2023-05-02T08:16:21.179Z,452.00
2023-05-02T08:17:16.445Z,453.00
2023-05-02T08:18:12.175Z,452.00
2023-05-02T08:19:07.564Z,451.00
2023-05-02T08:20:03.098Z,456.00
2023-05-02T08:20:58.644Z,455.00
2023-05-02T08:21:53.872Z,454.00
2023-05-02T08:22:49.413Z,459.00
2023-05-02T08:23:44.797Z,456.00
2023-05-02T08:24:40.487Z,457.00
2023-05-02T08:25:35.933Z,460.00
2023-05-02T08:26:31.545Z,459.00
2023-05-02T08:27:26.763Z,452.00
2023-05-02T08:28:22.305Z,460.00
2023-05-02T08:29:17.672Z,463.00
2023-05-02T08:30:13.327Z,464.00
2023-05-02T08:31:08.776Z,460.00
2023-05-02T08:32:04.218Z,458.00
2023-05-02T08:32:59.754Z,453.00
2023-05-02T08:33:55.151Z,455.00
2023-05-02T08:34:50.536Z,454.00
2023-05-02T08:35:46.285Z,459.00
2023-05-02T08:36:41.699Z,459.00
2023-05-02T08:37:36.973Z,463.00
2023-05-02T08:38:32.400Z,460.00
2023-05-02T08:39:28.038Z,460.00
2023-05-02T08:40:34.001Z,454.00
2023-05-02T08:41:20.106Z,453.00
2023-05-02T08:42:14.398Z,453.00
2023-05-02T08:43:09.916Z,453.00
2023-05-02T08:44:05.250Z,453.00
2023-05-02T08:45:00.653Z,453.00
2023-05-02T08:45:56.156Z,454.00
2023-05-02T08:46:51.547Z,456.00
2023-05-02T08:47:47.095Z,458.00
2023-05-02T08:48:42.469Z,460.00
2023-05-02T08:49:37.810Z,451.00
2023-05-02T08:50:33.243Z,470.00
2023-05-02T08:51:28.814Z,465.00
2023-05-02T08:52:24.241Z,474.00
2023-05-02T08:53:19.621Z,470.00
2023-05-02T08:54:15.053Z,469.00
2023-05-02T08:55:10.548Z,465.00
2023-05-02T08:56:06.149Z,467.00
2023-05-02T08:57:01.361Z,470.00
2023-05-02T08:57:56.767Z,465.00
2023-05-02T08:58:52.161Z,468.00
2023-05-02T08:59:47.549Z,469.00
2023-05-02T09:00:43.153Z,467.00
2023-05-02T09:01:38.713Z,474.00
2023-05-02T09:02:34.068Z,478.00
2023-05-02T09:03:29.497Z,474.00
2023-05-02T09:04:25.064Z,472.00
2023-05-02T09:05:20.390Z,476.00
2023-05-02T09:06:15.967Z,477.00
2023-05-02T09:07:11.446Z,476.00
2023-05-02T09:08:06.996Z,475.00
2023-05-02T09:09:02.232Z,478.00
2023-05-02T09:09:57.843Z,472.00
2023-05-02T09:10:53.369Z,472.00
2023-05-02T09:11:48.905Z,471.00
2023-05-02T09:12:44.162Z,466.00
2023-05-02T09:13:39.539Z,476.00
2023-05-02T09:14:34.926Z,470.00
2023-05-02T09:15:30.493Z,472.00
2023-05-02T09:16:26.256Z,466.00
2023-05-02T09:17:21.549Z,469.00
2023-05-02T09:18:16.901Z,469.00
2023-05-02T09:19:12.562Z,475.00
2023-05-02T09:20:07.945Z,470.00
2023-05-02T09:21:03.603Z,473.00
2023-05-02T09:21:58.951Z,469.00
2023-05-02T09:22:54.420Z,470.00
2023-05-02T09:23:49.836Z,468.00
2023-05-02T09:24:45.564Z,476.00
2023-05-02T09:25:40.991Z,486.00
2023-05-02T09:26:36.621Z,471.00
2023-05-02T09:27:32.016Z,468.00
2023-05-02T09:28:27.540Z,473.00
2023-05-02T09:29:22.944Z,470.00
2023-05-02T09:30:18.383Z,460.00
2023-05-02T09:31:15.215Z,466.00
2023-05-02T09:32:09.317Z,473.00
2023-05-02T09:33:04.630Z,469.00
2023-05-02T09:34:00.247Z,472.00
2023-05-02T09:34:55.624Z,469.00
2023-05-02T09:35:51.105Z,466.00
2023-05-02T09:36:46.732Z,467.00
2023-05-02T09:37:42.033Z,469.00
2023-05-02T09:38:37.613Z,468.00
2023-05-02T09:39:33.192Z,469.00
2023-05-02T09:40:28.567Z,468.00
2023-05-02T09:41:24.226Z,475.00
2023-05-02T09:42:19.473Z,471.00
2023-05-02T09:43:15.208Z,474.00
2023-05-02T09:44:10.669Z,471.00
2023-05-02T09:45:06.094Z,467.00
2023-05-02T09:46:01.691Z,468.00
2023-05-02T09:46:57.205Z,486.00
2023-05-02T09:47:52.744Z,481.00
2023-05-02T09:48:47.978Z,477.00
2023-05-02T09:49:43.423Z,485.00
2023-05-02T09:50:38.883Z,485.00
2023-05-02T09:51:34.507Z,493.00
2023-05-02T09:52:29.957Z,483.00
2023-05-02T09:53:25.377Z,495.00
2023-05-02T09:54:20.833Z,492.00
2023-05-02T09:55:16.217Z,489.00
2023-05-02T09:56:11.831Z,485.00
2023-05-02T09:57:07.660Z,485.00
2023-05-02T09:58:02.818Z,487.00
2023-05-02T09:58:58.201Z,490.00
2023-05-02T09:59:53.634Z,489.00
2023-05-02T10:00:48.994Z,489.00
2023-05-02T10:01:44.693Z,500.00
2023-05-02T10:02:40.129Z,499.00
2023-05-02T10:03:35.678Z,493.00
2023-05-02T10:04:31.374Z,494.00
2023-05-02T10:05:26.699Z,490.00
2023-05-02T10:06:22.160Z,489.00
2023-05-02T10:07:17.733Z,476.00
2023-05-02T10:08:13.024Z,489.00
2023-05-02T10:09:08.622Z,492.00
2023-05-02T10:10:04.079Z,490.00
2023-05-02T10:10:59.657Z,498.00
2023-05-02T10:11:55.206Z,494.00
2023-05-02T10:12:50.642Z,492.00
2023-05-02T10:13:46.003Z,488.00
2023-05-02T10:14:41.812Z,484.00
2023-05-02T10:15:37.127Z,485.00
2023-05-02T10:16:32.728Z,489.00
2023-05-02T10:17:28.369Z,490.00
2023-05-02T10:18:23.619Z,488.00
2023-05-02T10:19:18.965Z,499.00
2023-05-02T10:20:14.348Z,491.00
2023-05-02T10:21:09.749Z,491.00
2023-05-02T10:22:05.132Z,490.00
2023-05-02T10:23:00.487Z,489.00
2023-05-02T10:23:55.886Z,487.00
2023-05-02T10:24:51.246Z,492.00
2023-05-02T10:25:46.888Z,501.00
2023-05-02T10:26:42.348Z,490.00
2023-05-02T10:27:37.651Z,487.00
2023-05-02T10:28:33.091Z,491.00
2023-05-02T10:29:28.647Z,489.00
2023-05-02T10:30:24.163Z,491.00
2023-05-02T10:31:19.790Z,491.00
2023-05-02T10:32:15.028Z,487.00
2023-05-02T10:33:10.648Z,490.00
2023-05-02T10:34:06.100Z,490.00
2023-05-02T10:35:01.926Z,485.00
2023-05-02T10:35:57.121Z,484.00
2023-05-02T10:36:52.761Z,484.00
2023-05-02T10:37:48.157Z,489.00
2023-05-02T10:38:43.716Z,483.00
2023-05-02T10:39:39.241Z,483.00
2023-05-02T10:40:34.773Z,483.00
2023-05-02T10:41:30.370Z,492.00
2023-05-02T10:42:25.696Z,484.00
2023-05-02T10:43:21.104Z,488.00
2023-05-02T10:44:16.570Z,481.00
2023-05-02T10:45:12.030Z,485.00
2023-05-02T10:46:07.470Z,484.00
2023-05-02T10:47:03.304Z,491.00
2023-05-02T10:47:58.404Z,485.00
2023-05-02T10:48:53.833Z,487.00
2023-05-02T10:49:49.312Z,490.00
2023-05-02T10:50:44.699Z,491.00
2023-05-02T10:51:40.586Z,489.00
2023-05-02T10:52:35.928Z,494.00
2023-05-02T10:53:31.344Z,492.00
2023-05-02T10:54:26.769Z,487.00
2023-05-02T10:55:22.216Z,488.00
2023-05-02T10:56:17.636Z,485.00
2023-05-02T10:57:13.274Z,486.00
2023-05-02T10:58:08.683Z,494.00
2023-05-02T10:59:04.239Z,487.00
2023-05-02T10:59:59.624Z,486.00
2023-05-02T11:00:55.122Z,485.00
2023-05-02T11:01:50.556Z,485.00
2023-05-02T11:02:46.395Z,483.00
2023-05-02T11:03:41.501Z,480.00
2023-05-02T11:04:36.941Z,477.00
2023-05-02T11:05:32.381Z,485.00
2023-05-02T11:06:27.985Z,483.00
2023-05-02T11:07:23.529Z,485.00
2023-05-02T11:08:21.358Z,486.00
2023-05-02T11:09:14.185Z,489.00
2023-05-02T11:10:09.863Z,483.00
2023-05-02T11:11:05.345Z,489.00
2023-05-02T11:12:00.885Z,490.00
2023-05-02T11:12:56.474Z,493.00
2023-05-02T11:13:51.737Z,490.00
2023-05-02T11:14:47.149Z,491.00
2023-05-02T11:15:42.628Z,488.00
2023-05-02T11:16:38.128Z,487.00
2023-05-02T11:17:33.754Z,486.00
2023-05-02T11:18:29.136Z,486.00
2023-05-02T11:19:24.720Z,481.00
2023-05-02T11:20:20.126Z,486.00
2023-05-02T11:21:15.581Z,483.00
2023-05-02T11:22:10.968Z,485.00
2023-05-02T11:23:06.786Z,491.00
2023-05-02T11:24:02.085Z,489.00
2023-05-02T11:24:57.580Z,490.00
2023-05-02T11:25:53.167Z,486.00
2023-05-02T11:26:48.711Z,502.00
2023-05-02T11:27:44.245Z,502.00
2023-05-02T11:28:39.613Z,506.00
2023-05-02T11:29:35.013Z,505.00
2023-05-02T11:30:30.439Z,505.00
2023-05-02T11:31:26.080Z,499.00
2023-05-02T11:32:21.363Z,500.00